sensor_id;sensor_type;location;lat;lon;timestamp;pressure;altitude;pressure_sealevel;temperature;humidity
9187;BME280;7273;48.902;9.410;2022-11-20T00:01:43;97519.84;;;5.45;87.87
9187;BME280;7273;48.902;9.410;2022-11-20T00:04:10;97515.88;;;5.53;87.76
9187;BME280;7273;48.902;9.410;2022-11-20T00:06:37;97523.13;;;5.52;87.44
9187;BME280;7273;48.902;9.410;2022-11-20T00:09:03;97520.47;;;5.57;87.93
9187;BME280;7273;48.902;9.410;2022-11-20T00:11:31;97527.69;;;5.57;87.75
9187;BME280;7273;48.902;9.410;2022-11-20T00:13:58;97521.03;;;5.59;87.51
9187;BME280;7273;48.902;9.410;2022-11-20T00:16:26;97523.16;;;5.57;87.82
9187;BME280;7273;48.902;9.410;2022-11-20T00:18:52;97525.06;;;5.62;87.68
9187;BME280;7273;48.902;9.410;2022-11-20T00:21:21;97520.72;;;5.56;87.60
9187;BME280;7273;48.902;9.410;2022-11-20T00:23:47;97518.88;;;5.56;87.57
9187;BME280;7273;48.902;9.410;2022-11-20T00:26:15;97520.78;;;5.61;87.50
9187;BME280;7273;48.902;9.410;2022-11-20T00:28:42;97521.84;;;5.60;87.52
9187;BME280;7273;48.902;9.410;2022-11-20T00:31:14;97507.63;;;5.59;87.59
9187;BME280;7273;48.902;9.410;2022-11-20T00:33:40;97513.25;;;5.58;87.45
9187;BME280;7273;48.902;9.410;2022-11-20T00:36:11;97514.88;;;5.64;87.82
9187;BME280;7273;48.902;9.410;2022-11-20T00:38:38;97517.00;;;5.62;87.87
9187;BME280;7273;48.902;9.410;2022-11-20T00:41:06;97513.56;;;5.66;87.46
9187;BME280;7273;48.902;9.410;2022-11-20T00:43:32;97513.84;;;5.70;87.77
9187;BME280;7273;48.902;9.410;2022-11-20T00:46:03;97506.88;;;5.69;87.54
9187;BME280;7273;48.902;9.410;2022-11-20T00:48:29;97514.91;;;5.69;87.58
9187;BME280;7273;48.902;9.410;2022-11-20T00:50:55;97517.00;;;5.62;87.18
9187;BME280;7273;48.902;9.410;2022-11-20T00:53:21;97519.19;;;5.65;87.67
9187;BME280;7273;48.902;9.410;2022-11-20T00:55:58;97527.75;;;5.62;87.62
9187;BME280;7273;48.902;9.410;2022-11-20T00:58:24;97524.50;;;5.55;87.25
9187;BME280;7273;48.902;9.410;2022-11-20T01:00:50;97529.63;;;5.61;87.44
9187;BME280;7273;48.902;9.410;2022-11-20T01:03:19;97527.22;;;5.60;87.42
9187;BME280;7273;48.902;9.410;2022-11-20T01:05:44;97529.06;;;5.59;87.79
9187;BME280;7273;48.902;9.410;2022-11-20T01:08:10;97527.25;;;5.65;87.96
9187;BME280;7273;48.902;9.410;2022-11-20T01:10:35;97526.13;;;5.61;87.48
9187;BME280;7273;48.902;9.410;2022-11-20T01:13:01;97535.03;;;5.66;87.58
9187;BME280;7273;48.902;9.410;2022-11-20T01:15:45;97530.19;;;5.68;88.02
9187;BME280;7273;48.902;9.410;2022-11-20T01:18:11;97540.66;;;5.70;87.52
9187;BME280;7273;48.902;9.410;2022-11-20T01:20:36;97534.56;;;5.74;87.93
9187;BME280;7273;48.902;9.410;2022-11-20T01:23:05;97536.97;;;5.76;88.00
9187;BME280;7273;48.902;9.410;2022-11-20T01:25:30;97536.38;;;5.69;87.95
9187;BME280;7273;48.902;9.410;2022-11-20T01:27:56;97534.56;;;5.74;87.78
9187;BME280;7273;48.902;9.410;2022-11-20T01:30:21;97546.59;;;5.72;87.78
9187;BME280;7273;48.902;9.410;2022-11-20T01:32:47;97536.44;;;5.79;87.65
9187;BME280;7273;48.902;9.410;2022-11-20T01:35:12;97541.81;;;5.79;87.93
9187;BME280;7273;48.902;9.410;2022-11-20T01:37:37;97542.63;;;5.79;87.95
9187;BME280;7273;48.902;9.410;2022-11-20T01:40:03;97538.38;;;5.83;87.59
9187;BME280;7273;48.902;9.410;2022-11-20T01:42:29;97536.72;;;5.77;87.61
9187;BME280;7273;48.902;9.410;2022-11-20T01:48:13;97534.00;;;5.72;87.75
9187;BME280;7273;48.902;9.410;2022-11-20T01:50:40;97535.91;;;5.77;87.68
9187;BME280;7273;48.902;9.410;2022-11-20T01:53:11;97527.53;;;5.73;87.81
9187;BME280;7273;48.902;9.410;2022-11-20T01:55:51;97524.91;;;5.78;87.33
9187;BME280;7273;48.902;9.410;2022-11-20T01:58:21;97532.69;;;5.80;87.45
9187;BME280;7273;48.902;9.410;2022-11-20T02:00:48;97518.66;;;5.63;87.37
9187;BME280;7273;48.902;9.410;2022-11-20T02:03:16;97519.91;;;5.55;87.33
9187;BME280;7273;48.902;9.410;2022-11-20T02:06:23;97527.25;;;5.65;87.78
9187;BME280;7273;48.902;9.410;2022-11-20T02:08:46;97519.69;;;5.62;87.99
9187;BME280;7273;48.902;9.410;2022-11-20T02:11:11;97520.53;;;5.67;87.67
9187;BME280;7273;48.902;9.410;2022-11-20T02:13:38;97513.53;;;5.61;87.27
9187;BME280;7273;48.902;9.410;2022-11-20T02:16:30;97522.41;;;5.67;87.44
9187;BME280;7273;48.902;9.410;2022-11-20T02:18:58;97522.94;;;5.64;87.73
9187;BME280;7273;48.902;9.410;2022-11-20T02:21:28;97523.44;;;5.61;87.51
9187;BME280;7273;48.902;9.410;2022-11-20T02:24:03;97531.28;;;5.67;87.44
9187;BME280;7273;48.902;9.410;2022-11-20T02:26:33;97525.34;;;5.65;87.64
9187;BME280;7273;48.902;9.410;2022-11-20T02:29:02;97526.47;;;5.69;87.94
9187;BME280;7273;48.902;9.410;2022-11-20T02:31:28;97522.72;;;5.70;87.64
9187;BME280;7273;48.902;9.410;2022-11-20T02:33:57;97522.75;;;5.75;87.65
9187;BME280;7273;48.902;9.410;2022-11-20T02:36:24;97520.63;;;5.77;87.54
9187;BME280;7273;48.902;9.410;2022-11-20T02:38:51;97525.47;;;5.80;87.75
9187;BME280;7273;48.902;9.410;2022-11-20T02:41:17;97528.97;;;5.81;87.68
9187;BME280;7273;48.902;9.410;2022-11-20T02:43:42;97532.91;;;5.73;87.62
9187;BME280;7273;48.902;9.410;2022-11-20T02:46:07;97532.69;;;5.80;88.00
9187;BME280;7273;48.902;9.410;2022-11-20T02:48:33;97533.56;;;5.85;87.83
9187;BME280;7273;48.902;9.410;2022-11-20T02:50:59;97527.69;;;5.88;87.85
9187;BME280;7273;48.902;9.410;2022-11-20T02:53:24;97527.72;;;5.93;87.43
9187;BME280;7273;48.902;9.410;2022-11-20T02:55:49;97518.59;;;5.94;87.52
9187;BME280;7273;48.902;9.410;2022-11-20T02:58:15;97527.44;;;5.95;87.11
9187;BME280;7273;48.902;9.410;2022-11-20T03:00:40;97531.22;;;5.94;87.33
9187;BME280;7273;48.902;9.410;2022-11-20T03:03:06;97527.94;;;5.87;87.21
9187;BME280;7273;48.902;9.410;2022-11-20T03:05:31;97526.63;;;5.94;86.86
9187;BME280;7273;48.902;9.410;2022-11-20T03:07:56;97525.88;;;5.99;86.70
9187;BME280;7273;48.902;9.410;2022-11-20T03:10:22;97528.28;;;6.00;86.44
9187;BME280;7273;48.902;9.410;2022-11-20T03:12:53;97523.47;;;5.97;86.16
9187;BME280;7273;48.902;9.410;2022-11-20T03:15:18;97523.19;;;5.99;86.41
9187;BME280;7273;48.902;9.410;2022-11-20T03:17:44;97529.38;;;6.04;86.22
9187;BME280;7273;48.902;9.410;2022-11-20T03:20:09;97517.03;;;6.03;85.85
9187;BME280;7273;48.902;9.410;2022-11-20T03:22:35;97518.34;;;6.01;85.86
9187;BME280;7273;48.902;9.410;2022-11-20T03:25:01;97515.69;;;6.06;85.89
9187;BME280;7273;48.902;9.410;2022-11-20T03:27:26;97512.22;;;6.05;86.05
9187;BME280;7273;48.902;9.410;2022-11-20T03:29:51;97511.94;;;6.02;85.41
9187;BME280;7273;48.902;9.410;2022-11-20T03:32:17;97511.38;;;6.00;85.80
9187;BME280;7273;48.902;9.410;2022-11-20T03:34:42;97505.50;;;6.08;86.10
9187;BME280;7273;48.902;9.410;2022-11-20T03:37:08;97515.44;;;6.07;86.06
9187;BME280;7273;48.902;9.410;2022-11-20T03:39:33;97513.03;;;6.11;85.95
9187;BME280;7273;48.902;9.410;2022-11-20T03:41:58;97512.75;;;6.07;85.65
9187;BME280;7273;48.902;9.410;2022-11-20T03:44:24;97511.69;;;6.08;85.91
9187;BME280;7273;48.902;9.410;2022-11-20T03:46:49;97511.16;;;6.06;85.79
9187;BME280;7273;48.902;9.410;2022-11-20T03:49:14;97501.22;;;6.07;85.17
9187;BME280;7273;48.902;9.410;2022-11-20T03:51:40;97507.63;;;6.06;85.68
9187;BME280;7273;48.902;9.410;2022-11-20T03:54:07;97503.66;;;6.08;85.33
9187;BME280;7273;48.902;9.410;2022-11-20T03:56:35;97497.47;;;6.08;85.60
9187;BME280;7273;48.902;9.410;2022-11-20T03:59:01;97498.81;;;6.05;85.15
9187;BME280;7273;48.902;9.410;2022-11-20T04:01:30;97503.88;;;6.02;85.50
9187;BME280;7273;48.902;9.410;2022-11-20T04:03:56;97505.47;;;6.03;85.37
9187;BME280;7273;48.902;9.410;2022-11-20T04:06:24;97505.47;;;5.98;85.04
9187;BME280;7273;48.902;9.410;2022-11-20T04:08:50;97502.00;;;5.97;85.19
9187;BME280;7273;48.902;9.410;2022-11-20T04:11:22;97506.28;;;5.98;85.05
9187;BME280;7273;48.902;9.410;2022-11-20T04:13:54;97500.94;;;6.03;85.15
9187;BME280;7273;48.902;9.410;2022-11-20T04:16:21;97503.63;;;6.03;84.98
9187;BME280;7273;48.902;9.410;2022-11-20T04:18:46;97504.16;;;6.05;85.43
9187;BME280;7273;48.902;9.410;2022-11-20T04:21:12;97498.53;;;6.07;85.27
9187;BME280;7273;48.902;9.410;2022-11-20T04:23:38;97505.25;;;6.09;85.29
9187;BME280;7273;48.902;9.410;2022-11-20T04:26:08;97489.16;;;6.09;85.06
9187;BME280;7273;48.902;9.410;2022-11-20T04:28:34;97495.03;;;6.06;84.85
9187;BME280;7273;48.902;9.410;2022-11-20T04:31:07;97492.63;;;6.05;85.03
9187;BME280;7273;48.902;9.410;2022-11-20T04:33:34;97493.16;;;6.02;84.57
9187;BME280;7273;48.902;9.410;2022-11-20T04:36:01;97491.00;;;6.04;84.90
9187;BME280;7273;48.902;9.410;2022-11-20T04:38:27;97497.72;;;6.06;84.65
9187;BME280;7273;48.902;9.410;2022-11-20T04:40:56;97500.94;;;6.03;84.74
9187;BME280;7273;48.902;9.410;2022-11-20T04:43:22;97504.16;;;6.05;84.77
9187;BME280;7273;48.902;9.410;2022-11-20T04:45:52;97502.28;;;6.06;84.67
9187;BME280;7273;48.902;9.410;2022-11-20T04:48:17;97491.53;;;6.06;84.68
9187;BME280;7273;48.902;9.410;2022-11-20T04:50:43;97489.13;;;6.04;84.66
9187;BME280;7273;48.902;9.410;2022-11-20T04:53:08;97501.22;;;6.07;84.41
9187;BME280;7273;48.902;9.410;2022-11-20T04:55:33;97496.63;;;6.07;84.46
9187;BME280;7273;48.902;9.410;2022-11-20T04:57:59;97505.25;;;6.09;84.30
9187;BME280;7273;48.902;9.410;2022-11-20T05:00:24;97500.13;;;6.03;84.58
9187;BME280;7273;48.902;9.410;2022-11-20T05:02:49;97496.63;;;6.07;84.48
9187;BME280;7273;48.902;9.410;2022-11-20T05:05:15;97497.47;;;6.08;84.37
9187;BME280;7273;48.902;9.410;2022-11-20T05:07:40;97499.88;;;6.09;84.68
9187;BME280;7273;48.902;9.410;2022-11-20T05:10:06;97501.22;;;6.07;84.59
9187;BME280;7273;48.902;9.410;2022-11-20T05:12:32;97498.28;;;6.08;84.59
9187;BME280;7273;48.902;9.410;2022-11-20T05:14:57;97501.25;;;6.12;84.28
9187;BME280;7273;48.902;9.410;2022-11-20T05:17:22;97492.13;;;6.13;83.96
9187;BME280;7273;48.902;9.410;2022-11-20T05:19:48;97495.06;;;6.11;84.19
9187;BME280;7273;48.902;9.410;2022-11-20T05:22:13;97497.75;;;6.11;83.95
9187;BME280;7273;48.902;9.410;2022-11-20T05:24:38;97504.72;;;6.12;84.27
9187;BME280;7273;48.902;9.410;2022-11-20T05:27:04;97504.72;;;6.12;84.53
9187;BME280;7273;48.902;9.410;2022-11-20T05:29:29;97503.94;;;6.12;84.46
9187;BME280;7273;48.902;9.410;2022-11-20T05:31:55;97502.03;;;6.12;84.35
9187;BME280;7273;48.902;9.410;2022-11-20T05:34:20;97496.41;;;6.14;84.01
9187;BME280;7273;48.902;9.410;2022-11-20T05:36:45;97494.25;;;6.11;84.12
9187;BME280;7273;48.902;9.410;2022-11-20T05:39:11;97495.63;;;6.13;84.29
9187;BME280;7273;48.902;9.410;2022-11-20T05:41:36;97499.09;;;6.09;84.59
9187;BME280;7273;48.902;9.410;2022-11-20T05:44:02;97500.44;;;6.11;84.62
9187;BME280;7273;48.902;9.410;2022-11-20T05:46:27;97498.28;;;6.08;84.43
9187;BME280;7273;48.902;9.410;2022-11-20T05:48:53;97491.81;;;6.04;84.11
9187;BME280;7273;48.902;9.410;2022-11-20T05:51:19;97494.75;;;6.03;84.16
9187;BME280;7273;48.902;9.410;2022-11-20T05:53:45;97489.91;;;6.00;84.04
9187;BME280;7273;48.902;9.410;2022-11-20T05:56:16;97494.75;;;6.03;83.99
9187;BME280;7273;48.902;9.410;2022-11-20T05:58:42;97494.47;;;6.04;84.57
9187;BME280;7273;48.902;9.410;2022-11-20T06:03:37;97493.69;;;6.04;84.35
9187;BME280;7273;48.902;9.410;2022-11-20T06:06:04;97490.16;;;5.98;84.07
9187;BME280;7273;48.902;9.410;2022-11-20T06:08:29;97490.47;;;6.02;83.95
9187;BME280;7273;48.902;9.410;2022-11-20T06:10:55;97494.19;;;5.96;84.20
9187;BME280;7273;48.902;9.410;2022-11-20T06:13:21;97487.19;;;5.95;83.91
9187;BME280;7273;48.902;9.410;2022-11-20T06:15:53;97488.84;;;5.96;84.29
9187;BME280;7273;48.902;9.410;2022-11-20T06:18:19;97481.84;;;6.00;83.91
9187;BME280;7273;48.902;9.410;2022-11-20T06:20:45;97485.88;;;5.97;84.14
9187;BME280;7273;48.902;9.410;2022-11-20T06:23:11;97488.59;;;6.02;84.08
9187;BME280;7273;48.902;9.410;2022-11-20T06:25:41;97483.72;;;5.99;84.21
9187;BME280;7273;48.902;9.410;2022-11-20T06:28:07;97489.91;;;6.00;84.19
9187;BME280;7273;48.902;9.410;2022-11-20T06:30:33;97478.88;;;5.96;84.38
9187;BME280;7273;48.902;9.410;2022-11-20T06:32:58;97481.34;;;6.03;84.18
9187;BME280;7273;48.902;9.410;2022-11-20T06:35:23;97483.22;;;6.02;83.74
9187;BME280;7273;48.902;9.410;2022-11-20T06:37:49;97483.19;;;5.97;84.13
9187;BME280;7273;48.902;9.410;2022-11-20T06:40:14;97486.97;;;6.01;84.13
9187;BME280;7273;48.902;9.410;2022-11-20T06:42:40;97476.78;;;6.03;83.86
9187;BME280;7273;48.902;9.410;2022-11-20T06:45:06;97486.44;;;6.04;84.40
9187;BME280;7273;48.902;9.410;2022-11-20T06:47:32;97489.13;;;6.04;83.90
9187;BME280;7273;48.902;9.410;2022-11-20T06:49:57;97492.34;;;6.06;84.08
9187;BME280;7273;48.902;9.410;2022-11-20T06:52:23;97492.66;;;6.10;84.07
9187;BME280;7273;48.902;9.410;2022-11-20T06:54:48;97486.19;;;6.11;84.06
9187;BME280;7273;48.902;9.410;2022-11-20T06:57:13;97488.88;;;6.11;83.96
9187;BME280;7273;48.902;9.410;2022-11-20T06:59:39;97483.00;;;6.09;83.36
9187;BME280;7273;48.902;9.410;2022-11-20T07:02:04;97482.47;;;6.12;83.78
9187;BME280;7273;48.902;9.410;2022-11-20T07:04:30;97487.03;;;6.16;84.00
9187;BME280;7273;48.902;9.410;2022-11-20T07:06:55;97487.31;;;6.15;83.68
9187;BME280;7273;48.902;9.410;2022-11-20T07:09:20;97487.84;;;6.17;83.76
9187;BME280;7273;48.902;9.410;2022-11-20T07:11:46;97495.91;;;6.17;83.64
9187;BME280;7273;48.902;9.410;2022-11-20T07:14:11;97500.44;;;6.11;83.30
9187;BME280;7273;48.902;9.410;2022-11-20T07:16:37;97487.56;;;6.13;84.00
9187;BME280;7273;48.902;9.410;2022-11-20T07:19:02;97495.63;;;6.18;83.38
9187;BME280;7273;48.902;9.410;2022-11-20T07:21:27;97499.63;;;6.16;83.42
9187;BME280;7273;48.902;9.410;2022-11-20T07:23:53;97499.66;;;6.21;83.63
9187;BME280;7273;48.902;9.410;2022-11-20T07:26:18;97508.25;;;6.18;83.36
9187;BME280;7273;48.902;9.410;2022-11-20T07:28:45;97501.53;;;6.20;83.53
9187;BME280;7273;48.902;9.410;2022-11-20T07:31:10;97501.53;;;6.20;83.63
9187;BME280;7273;48.902;9.410;2022-11-20T07:33:37;97499.41;;;6.22;83.08
9187;BME280;7273;48.902;9.410;2022-11-20T07:36:02;97502.31;;;6.16;83.27
9187;BME280;7273;48.902;9.410;2022-11-20T07:38:28;97506.91;;;6.25;83.08
9187;BME280;7273;48.902;9.410;2022-11-20T07:40:56;97515.81;;;6.31;82.79
9187;BME280;7273;48.902;9.410;2022-11-20T07:43:27;97515.28;;;6.34;83.47
9187;BME280;7273;48.902;9.410;2022-11-20T07:45:55;97515.84;;;6.41;82.90
9187;BME280;7273;48.902;9.410;2022-11-20T07:48:21;97517.19;;;6.38;83.33
9187;BME280;7273;48.902;9.410;2022-11-20T07:50:46;97518.28;;;6.42;83.14
9187;BME280;7273;48.902;9.410;2022-11-20T07:53:12;97521.25;;;6.46;83.02
9187;BME280;7273;48.902;9.410;2022-11-20T07:55:39;97520.44;;;6.45;83.46
9187;BME280;7273;48.902;9.410;2022-11-20T07:58:04;97516.41;;;6.43;83.24
9187;BME280;7273;48.902;9.410;2022-11-20T08:00:30;97519.84;;;6.38;83.51
9187;BME280;7273;48.902;9.410;2022-11-20T08:02:55;97523.06;;;6.30;83.98
9187;BME280;7273;48.902;9.410;2022-11-20T08:05:21;97530.31;;;6.30;84.37
9187;BME280;7273;48.902;9.410;2022-11-20T08:07:47;97531.63;;;6.27;84.44
9187;BME280;7273;48.902;9.410;2022-11-20T08:10:14;97527.84;;;6.18;84.65
9187;BME280;7273;48.902;9.410;2022-11-20T08:12:48;97527.28;;;6.16;84.72
9187;BME280;7273;48.902;9.410;2022-11-20T08:15:32;97524.84;;;6.10;84.50
9187;BME280;7273;48.902;9.410;2022-11-20T08:18:06;97523.25;;;6.09;84.33
9187;BME280;7273;48.902;9.410;2022-11-20T08:20:32;97524.81;;;6.05;84.67
9187;BME280;7273;48.902;9.410;2022-11-20T08:23:02;97526.16;;;6.07;84.18
9187;BME280;7273;48.902;9.410;2022-11-20T08:25:29;97529.66;;;6.08;84.42
9187;BME280;7273;48.902;9.410;2022-11-20T08:27:57;97531.28;;;6.04;84.52
9187;BME280;7273;48.902;9.410;2022-11-20T08:30:23;97529.94;;;6.06;84.83
9187;BME280;7273;48.902;9.410;2022-11-20T08:32:48;97531.53;;;6.07;84.44
9187;BME280;7273;48.902;9.410;2022-11-20T08:35:14;97535.84;;;6.08;85.11
9187;BME280;7273;48.902;9.410;2022-11-20T08:37:39;97535.59;;;6.10;84.88
9187;BME280;7273;48.902;9.410;2022-11-20T08:40:09;97531.53;;;6.07;84.98
9187;BME280;7273;48.902;9.410;2022-11-20T08:42:35;97535.84;;;6.08;85.13
9187;BME280;7273;48.902;9.410;2022-11-20T08:45:00;97540.16;;;6.14;84.91
9187;BME280;7273;48.902;9.410;2022-11-20T08:47:26;97536.44;;;6.15;84.61
9187;BME280;7273;48.902;9.410;2022-11-20T08:49:51;97539.38;;;6.19;84.97
9187;BME280;7273;48.902;9.410;2022-11-20T08:52:17;97543.44;;;6.21;85.32
9187;BME280;7273;48.902;9.410;2022-11-20T08:54:42;97543.97;;;6.23;85.34
9187;BME280;7273;48.902;9.410;2022-11-20T08:57:08;97545.06;;;6.27;84.94
9187;BME280;7273;48.902;9.410;2022-11-20T08:59:33;97539.97;;;6.26;85.46
9187;BME280;7273;48.902;9.410;2022-11-20T09:01:58;97542.09;;;6.24;85.74
9187;BME280;7273;48.902;9.410;2022-11-20T09:04:24;97539.44;;;6.29;85.72
9187;BME280;7273;48.902;9.410;2022-11-20T09:06:50;97542.66;;;6.31;85.20
9187;BME280;7273;48.902;9.410;2022-11-20T09:09:17;97541.84;;;6.30;84.85
9187;BME280;7273;48.902;9.410;2022-11-20T09:11:43;97544.53;;;6.30;84.79
9187;BME280;7273;48.902;9.410;2022-11-20T09:14:08;97545.09;;;6.32;85.26
9187;BME280;7273;48.902;9.410;2022-11-20T09:16:34;97547.50;;;6.34;84.94
9187;BME280;7273;48.902;9.410;2022-11-20T09:18:59;97543.78;;;6.35;85.25
9187;BME280;7273;48.902;9.410;2022-11-20T09:21:24;97555.56;;;6.34;85.24
9187;BME280;7273;48.902;9.410;2022-11-20T09:23:50;97555.03;;;6.37;85.23
9187;BME280;7273;48.902;9.410;2022-11-20T09:26:15;97553.72;;;6.39;85.23
9187;BME280;7273;48.902;9.410;2022-11-20T09:28:41;97559.91;;;6.40;84.89
9187;BME280;7273;48.902;9.410;2022-11-20T09:31:22;97563.94;;;6.42;84.85
9187;BME280;7273;48.902;9.410;2022-11-20T09:33:48;97556.97;;;6.41;85.45
9187;BME280;7273;48.902;9.410;2022-11-20T09:36:13;97559.38;;;6.43;85.00
9187;BME280;7273;48.902;9.410;2022-11-20T09:38:39;97559.66;;;6.46;85.32
9187;BME280;7273;48.902;9.410;2022-11-20T09:41:06;97561.28;;;6.47;84.96
9187;BME280;7273;48.902;9.410;2022-11-20T09:43:36;97556.44;;;6.49;85.12
9187;BME280;7273;48.902;9.410;2022-11-20T09:56:34;97579.31;;;6.57;85.67
9187;BME280;7273;48.902;9.410;2022-11-20T09:59:04;97576.34;;;6.58;86.44
9187;BME280;7273;48.902;9.410;2022-11-20T10:01:33;97569.66;;;6.61;85.60
9187;BME280;7273;48.902;9.410;2022-11-20T10:04:06;97571.00;;;6.63;85.75
9187;BME280;7273;48.902;9.410;2022-11-20T10:06:47;97569.94;;;6.64;86.04
9187;BME280;7273;48.902;9.410;2022-11-20T10:09:24;97563.78;;;6.69;86.28
9187;BME280;7273;48.902;9.410;2022-11-20T10:17:10;97556.81;;;6.78;85.58
9187;BME280;7273;48.902;9.410;2022-11-20T10:27:44;97571.63;;;6.96;84.47
9187;BME280;7273;48.902;9.410;2022-11-20T10:30:16;97565.47;;;7.00;84.85
9187;BME280;7273;48.902;9.410;2022-11-20T10:32:45;97566.03;;;7.02;84.84
9187;BME280;7273;48.902;9.410;2022-11-20T10:37:47;97571.38;;;7.07;84.32
9187;BME280;7273;48.902;9.410;2022-11-20T10:40:26;97571.66;;;7.06;83.35
9187;BME280;7273;48.902;9.410;2022-11-20T10:43:02;97578.38;;;7.03;84.28
9187;BME280;7273;48.902;9.410;2022-11-20T10:45:36;97574.59;;;6.99;84.92
9187;BME280;7273;48.902;9.410;2022-11-20T10:48:31;97578.09;;;6.95;84.62
9187;BME280;7273;48.902;9.410;2022-11-20T10:53:40;97573.81;;;6.99;85.58
9187;BME280;7273;48.902;9.410;2022-11-20T10:56:19;97570.56;;;6.97;85.90
9187;BME280;7273;48.902;9.410;2022-11-20T10:58:55;97567.34;;;7.00;85.80
9187;BME280;7273;48.902;9.410;2022-11-20T11:01:24;97571.41;;;7.02;85.89
9187;BME280;7273;48.902;9.410;2022-11-20T11:03:52;97577.81;;;7.01;85.84
9187;BME280;7273;48.902;9.410;2022-11-20T11:06:40;97568.97;;;7.06;86.27
9187;BME280;7273;48.902;9.410;2022-11-20T11:09:16;97564.94;;;7.03;85.75
9187;BME280;7273;48.902;9.410;2022-11-20T11:11:42;97565.22;;;7.02;85.61
9187;BME280;7273;48.902;9.410;2022-11-20T11:14:13;97553.09;;;6.99;85.09
9187;BME280;7273;48.902;9.410;2022-11-20T11:16:53;97556.31;;;6.96;84.19
9187;BME280;7273;48.902;9.410;2022-11-20T11:19:19;97551.22;;;6.95;84.59
9187;BME280;7273;48.902;9.410;2022-11-20T11:21:53;97551.47;;;6.98;86.20
9187;BME280;7273;48.902;9.410;2022-11-20T11:24:28;97541.81;;;7.02;85.67
9187;BME280;7273;48.902;9.410;2022-11-20T11:26:57;97541.81;;;7.02;85.92
9187;BME280;7273;48.902;9.410;2022-11-20T11:29:24;97539.94;;;7.03;86.01
9187;BME280;7273;48.902;9.410;2022-11-20T11:32:11;97543.69;;;7.02;86.56
9187;BME280;7273;48.902;9.410;2022-11-20T11:34:37;97535.09;;;7.05;87.17
9187;BME280;7273;48.902;9.410;2022-11-20T11:37:04;97532.94;;;7.02;87.45
9187;BME280;7273;48.902;9.410;2022-11-20T11:39:35;97534.56;;;7.08;87.27
9187;BME280;7273;48.902;9.410;2022-11-20T11:42:00;97530.28;;;7.12;87.01
9187;BME280;7273;48.902;9.410;2022-11-20T11:44:28;97531.34;;;7.16;85.88
9187;BME280;7273;48.902;9.410;2022-11-20T11:47:30;97521.97;;;7.23;85.40
9187;BME280;7273;48.902;9.410;2022-11-20T11:55:25;97520.34;;;7.42;85.51
9187;BME280;7273;48.902;9.410;2022-11-20T12:00:44;97502.00;;;7.79;85.49
9187;BME280;7273;48.902;9.410;2022-11-20T12:03:17;97504.94;;;7.93;84.81
9187;BME280;7273;48.902;9.410;2022-11-20T12:05:52;97501.41;;;8.02;84.42
9187;BME280;7273;48.902;9.410;2022-11-20T12:11:02;97500.28;;;8.13;83.62
9187;BME280;7273;48.902;9.410;2022-11-20T12:16:14;97497.06;;;8.11;83.14
9187;BME280;7273;48.902;9.410;2022-11-20T12:18:42;97505.72;;;8.08;83.35
9187;BME280;7273;48.902;9.410;2022-11-20T12:24:01;97498.69;;;8.07;81.55
9187;BME280;7273;48.902;9.410;2022-11-20T12:34:35;97489.00;;;8.06;79.29
9187;BME280;7273;48.902;9.410;2022-11-20T12:40:31;97479.25;;;8.26;79.95
9187;BME280;7273;48.902;9.410;2022-11-20T12:44:02;97476.84;;;8.29;79.55
9187;BME280;7273;48.902;9.410;2022-11-20T12:49:29;97477.19;;;8.61;80.04
9187;BME280;7273;48.902;9.410;2022-11-20T12:52:29;97475.81;;;8.74;79.47
9187;BME280;7273;48.902;9.410;2022-11-20T12:55:14;97476.00;;;8.82;78.78
9187;BME280;7273;48.902;9.410;2022-11-20T12:57:57;97479.22;;;8.84;78.33
9187;BME280;7273;48.902;9.410;2022-11-20T13:00:24;97479.00;;;8.76;77.07
9187;BME280;7273;48.902;9.410;2022-11-20T13:08:41;97466.34;;;8.76;77.58
9187;BME280;7273;48.902;9.410;2022-11-20T13:11:21;97472.50;;;8.82;77.94
9187;BME280;7273;48.902;9.410;2022-11-20T13:16:32;97473.75;;;8.94;74.15
9187;BME280;7273;48.902;9.410;2022-11-20T13:19:02;97473.41;;;9.06;74.52
9187;BME280;7273;48.902;9.410;2022-11-20T13:21:46;97470.97;;;9.09;74.34
9187;BME280;7273;48.902;9.410;2022-11-20T13:24:22;97468.56;;;9.08;73.65
9187;BME280;7273;48.902;9.410;2022-11-20T13:29:43;97466.78;;;8.93;72.31
9187;BME280;7273;48.902;9.410;2022-11-20T13:32:18;97470.84;;;8.86;72.24
9187;BME280;7273;48.902;9.410;2022-11-20T13:34:56;97476.56;;;8.79;73.10
9187;BME280;7273;48.902;9.410;2022-11-20T13:37:34;97468.53;;;8.69;71.01
9187;BME280;7273;48.902;9.410;2022-11-20T13:42:39;97467.25;;;8.62;72.43
9187;BME280;7273;48.902;9.410;2022-11-20T13:45:29;97461.06;;;8.56;70.72
9187;BME280;7273;48.902;9.410;2022-11-20T13:47:56;97459.97;;;8.62;73.60
9187;BME280;7273;48.902;9.410;2022-11-20T13:53:32;97455.63;;;8.61;74.56
9187;BME280;7273;48.902;9.410;2022-11-20T13:56:07;97445.34;;;8.73;75.30
9187;BME280;7273;48.902;9.410;2022-11-20T13:58:40;97443.63;;;8.82;74.25
9187;BME280;7273;48.902;9.410;2022-11-20T14:04:08;97441.47;;;8.84;74.45
9187;BME280;7273;48.902;9.410;2022-11-20T14:06:45;97444.97;;;8.85;75.94
9187;BME280;7273;48.902;9.410;2022-11-20T14:09:13;97434.81;;;8.77;74.87
9187;BME280;7273;48.902;9.410;2022-11-20T14:11:49;97444.81;;;8.71;75.25
9187;BME280;7273;48.902;9.410;2022-11-20T14:14:28;97434.63;;;8.63;74.75
9187;BME280;7273;48.902;9.410;2022-11-20T14:17:07;97444.66;;;8.53;72.82
9187;BME280;7273;48.902;9.410;2022-11-20T14:19:33;97446.56;;;8.47;71.94
9187;BME280;7273;48.902;9.410;2022-11-20T14:22:16;97451.97;;;8.42;70.39
9187;BME280;7273;48.902;9.410;2022-11-20T14:24:44;97448.19;;;8.43;71.23
9187;BME280;7273;48.902;9.410;2022-11-20T14:27:18;97453.06;;;8.41;72.54
9187;BME280;7273;48.902;9.410;2022-11-20T14:29:46;97451.72;;;8.39;71.45
9187;BME280;7273;48.902;9.410;2022-11-20T14:32:18;97449.03;;;8.39;72.43
9187;BME280;7273;48.902;9.410;2022-11-20T14:34:46;97444.19;;;8.41;73.95
9187;BME280;7273;48.902;9.410;2022-11-20T14:37:18;97444.19;;;8.36;75.42
9187;BME280;7273;48.902;9.410;2022-11-20T14:39:55;97440.69;;;8.35;75.76
9187;BME280;7273;48.902;9.410;2022-11-20T14:42:23;97441.50;;;8.36;75.54
9187;BME280;7273;48.902;9.410;2022-11-20T14:44:50;97452.03;;;8.32;75.73
9187;BME280;7273;48.902;9.410;2022-11-20T14:47:23;97445.59;;;8.28;76.50
9187;BME280;7273;48.902;9.410;2022-11-20T14:49:51;97438.03;;;8.25;76.60
9187;BME280;7273;48.902;9.410;2022-11-20T14:52:23;97432.66;;;8.20;76.33
9187;BME280;7273;48.902;9.410;2022-11-20T14:55:07;97429.47;;;8.13;75.85
9187;BME280;7273;48.902;9.410;2022-11-20T14:57:35;97432.75;;;8.05;75.12
9187;BME280;7273;48.902;9.410;2022-11-20T15:02:44;97418.50;;;7.99;76.14
9187;BME280;7273;48.902;9.410;2022-11-20T15:05:11;97410.44;;;7.94;76.20
9187;BME280;7273;48.902;9.410;2022-11-20T15:07:39;97401.56;;;7.89;76.04
9187;BME280;7273;48.902;9.410;2022-11-20T15:10:27;97399.69;;;7.84;76.40